Time;durP1;ratioP1;P1;durP2;ratioP2;P2;SDS_P1;SDS_P2;PMS_P1;PMS_P2;Temp;Humidity;BMP_temperature;BMP_pressure;BME280_temperature;BME280_humidity;BME280_pressure;Samples;Min_cycle;Max_cycle;Signal;HPM_P1;HPM_P2
2021/11/20 00:01:02;;;;;;;12.50;7.20;;;;;;;10.49;95.07;102989.97;5073806;28;20043;-68
2021/11/20 00:03:28;;;;;;;13.38;6.75;;;;;;;10.53;95.07;102993.47;5055709;28;20021;-68
2021/11/20 00:05:54;;;;;;;14.02;6.45;;;;;;;10.53;95.18;102989.03;5055608;28;20491;-69
2021/11/20 00:08:22;;;;;;;11.98;7.30;;;;;;;10.58;94.57;102983.72;5055746;28;20104;-68
2021/11/20 00:10:51;;;;;;;11.23;6.47;;;;;;;10.57;94.46;102972.22;5063793;28;20029;-68
2021/11/20 00:13:17;;;;;;;11.48;7.32;;;;;;;10.57;94.34;102979.28;5055281;28;20071;-68
2021/11/20 00:15:47;;;;;;;10.27;7.07;;;;;;;10.58;94.28;102986.34;5055253;28;20037;-68
2021/11/20 00:18:14;;;;;;;13.02;6.43;;;;;;;10.58;94.10;102981.06;5055283;28;20029;-68
2021/11/20 00:20:48;;;;;;;12.65;7.15;;;;;;;10.57;94.06;102969.56;5068476;28;20017;-69
2021/11/20 00:23:18;;;;;;;15.13;7.93;;;;;;;10.51;94.32;102974.06;5075281;28;20103;-68
2021/11/20 00:25:50;;;;;;;11.63;7.22;;;;;;;10.52;94.09;102986.41;5075083;28;20024;-69
2021/11/20 00:28:28;;;;;;;12.27;7.43;;;;;;;10.55;93.77;102991.66;5055840;28;20033;-69
2021/11/20 00:30:59;;;;;;;11.57;7.63;;;;;;;10.53;93.36;102970.50;5053422;28;20059;-69
2021/11/20 00:33:29;;;;;;;12.95;8.32;;;;;;;10.47;93.24;102958.22;5094857;28;20036;-69
2021/11/20 00:35:57;;;;;;;15.15;8.85;;;;;;;10.45;93.50;102964.41;5095017;28;20052;-69
2021/11/20 00:38:23;;;;;;;12.52;8.80;;;;;;;10.44;93.08;102962.66;5077584;28;20031;-69
2021/11/20 00:40:54;;;;;;;15.93;8.93;;;;;;;10.44;93.04;102968.81;5074419;28;20033;-69
2021/11/20 00:43:21;;;;;;;14.48;9.05;;;;;;;10.46;92.81;102964.41;5093176;28;20111;-68
2021/11/20 00:45:47;;;;;;;17.05;9.70;;;;;;;10.47;92.72;102965.25;5095005;28;20024;-69
2021/11/20 00:48:14;;;;;;;17.67;10.57;;;;;;;10.50;92.34;102962.59;5094645;28;20073;-69
2021/11/20 00:50:42;;;;;;;16.83;10.15;;;;;;;10.53;91.80;102953.75;5095099;28;20077;-69
2021/11/20 00:53:08;;;;;;;14.15;9.90;;;;;;;10.54;91.83;102963.41;5079649;28;20034;-69
2021/11/20 00:55:34;;;;;;;16.60;9.80;;;;;;;10.54;91.54;102966.06;5074628;28;20024;-68
2021/11/20 00:58:00;;;;;;;16.98;11.00;;;;;;;10.55;91.57;102960.78;5074752;28;20048;-68
2021/11/20 01:00:30;;;;;;;16.17;11.30;;;;;;;10.53;91.45;102959.91;5074593;28;20033;-68
2021/11/20 01:02:56;;;;;;;16.48;10.73;;;;;;;10.53;91.47;102964.34;5074280;28;20441;-68
2021/11/20 01:05:21;;;;;;;14.07;9.82;;;;;;;10.53;91.44;102966.97;5074403;28;20077;-68
2021/11/20 01:07:47;;;;;;;15.15;10.25;;;;;;;10.56;91.09;102961.63;5074343;28;20384;-68
2021/11/20 01:10:16;;;;;;;16.95;11.20;;;;;;;10.53;91.20;102951.97;5074292;28;20384;-68
2021/11/20 01:12:42;;;;;;;17.58;11.85;;;;;;;10.51;91.43;102958.16;5074208;28;20031;-68
2021/11/20 01:15:12;;;;;;;16.13;11.05;;;;;;;10.56;91.24;102945.75;5074049;28;20060;-68
2021/11/20 01:17:37;;;;;;;16.77;11.05;;;;;;;10.56;91.43;102951.03;5074022;28;20060;-69
2021/11/20 01:20:06;;;;;;;18.17;12.27;;;;;;;10.53;91.46;102951.97;5074138;28;20041;-69
2021/11/20 01:22:32;;;;;;;16.90;11.25;;;;;;;10.53;91.44;102949.31;5073916;28;20025;-68
2021/11/20 01:24:57;;;;;;;21.00;12.50;;;;;;;10.51;91.85;102955.50;5075085;28;20020;-68
2021/11/20 01:27:24;;;;;;;18.52;12.45;;;;;;;10.48;92.10;102943.19;5073978;28;20032;-68
2021/11/20 01:29:51;;;;;;;20.15;13.25;;;;;;;10.48;91.78;102946.69;5074005;28;20021;-69
2021/11/20 01:32:17;;;;;;;18.15;12.60;;;;;;;10.47;92.39;102952.00;5073700;28;20060;-69
2021/11/20 01:34:42;;;;;;;18.25;12.52;;;;;;;10.43;92.75;102951.16;5074208;28;20032;-69
2021/11/20 01:37:09;;;;;;;19.90;12.05;;;;;;;10.42;92.85;102953.84;5073532;28;20115;-69
2021/11/20 01:39:37;;;;;;;19.63;12.10;;;;;;;10.41;92.84;102945.03;5073833;28;20103;-68
2021/11/20 01:42:06;;;;;;;20.98;12.68;;;;;;;10.44;92.97;102947.63;5073787;28;20029;-68
2021/11/20 01:44:34;;;;;;;22.25;12.82;;;;;;;10.40;93.10;102942.41;5073593;28;20074;-68
2021/11/20 01:47:10;;;;;;;21.15;13.13;;;;;;;10.38;93.52;102929.16;5074554;28;20081;-69
2021/11/20 01:49:39;;;;;;;25.27;13.73;;;;;;;10.37;93.57;102937.13;5073483;28;20028;-69
2021/11/20 01:52:30;;;;;;;20.83;13.40;;;;;;;10.34;93.61;102943.28;5073414;28;20444;-69
2021/11/20 01:55:00;;;;;;;22.75;13.52;;;;;;;10.32;93.97;102940.66;5073294;28;20024;-69
2021/11/20 01:57:38;;;;;;;19.92;12.75;;;;;;;10.36;93.70;102932.69;5074158;28;20134;-68
2021/11/20 02:00:19;;;;;;;20.00;12.82;;;;;;;10.36;93.72;102933.59;5073272;28;20535;-69
2021/11/20 02:02:58;;;;;;;21.67;13.15;;;;;;;10.39;93.48;102930.03;5073356;28;20031;-68
2021/11/20 02:05:31;;;;;;;22.88;13.75;;;;;;;10.38;93.76;102921.19;5072993;28;20512;-68
2021/11/20 02:08:04;;;;;;;21.33;13.43;;;;;;;10.39;93.45;102920.31;5073926;28;20120;-68
2021/11/20 02:10:36;;;;;;;23.33;13.88;;;;;;;10.32;93.96;102913.31;5073307;28;20024;-68
2021/11/20 02:13:04;;;;;;;;;;;;;;;10.26;94.25;102918.66;5073369;28;20431;-68
2021/11/20 02:15:35;;;;;;;23.08;12.65;;;;;;;10.30;93.96;102925.69;5073030;28;19919;-68
2021/11/20 02:18:01;;;;;;;24.50;13.48;;;;;;;10.32;93.74;102915.97;5072441;28;20028;-68
2021/11/20 02:20:49;;;;;;;21.48;12.95;;;;;;;10.32;93.93;102913.31;5072784;28;20029;-69
2021/11/20 02:23:14;;;;;;;20.42;12.50;;;;;;;10.36;93.88;102914.16;5072940;28;20029;-68
2021/11/20 02:25:39;;;;;;;19.47;12.77;;;;;;;10.39;93.62;102922.09;5072989;28;20082;-68
2021/11/20 02:28:06;;;;;;;23.23;13.15;;;;;;;10.38;93.61;102923.84;5073770;28;20312;-68
2021/11/20 02:30:45;;;;;;;23.00;13.57;;;;;;;10.36;93.61;102917.72;5072854;28;20080;-68
2021/11/20 02:33:24;;;;;;;21.98;12.90;;;;;;;10.36;93.65;102917.72;5072622;28;20508;-68
2021/11/20 02:35:54;;;;;;;22.45;13.50;;;;;;;10.32;93.51;102911.53;5072539;28;20115;-68
2021/11/20 02:38:24;;;;;;;21.45;13.57;;;;;;;10.31;93.69;102907.13;5073510;28;20029;-69
2021/11/20 02:40:50;;;;;;;22.25;12.93;;;;;;;10.28;93.72;102903.63;5073098;28;20048;-68
2021/11/20 02:43:16;;;;;;;23.15;14.02;;;;;;;10.26;93.72;102908.06;5072687;28;20448;-68
2021/11/20 02:45:49;;;;;;;23.05;12.93;;;;;;;10.30;93.66;102899.19;5072629;28;20039;-69
2021/11/20 02:48:15;;;;;;;22.27;12.68;;;;;;;10.31;93.21;102899.19;5073222;28;20017;-68
2021/11/20 02:50:54;;;;;;;20.58;13.77;;;;;;;10.31;92.44;102896.53;5072626;28;20488;-69
2021/11/20 02:53:28;;;;;;;22.63;12.18;;;;;;;10.35;92.43;102892.09;5072466;28;20456;-69
2021/11/20 02:55:53;;;;;;;20.67;13.00;;;;;;;10.34;92.19;102892.97;5073653;28;20052;-69
2021/11/20 02:58:23;;;;;;;19.80;12.27;;;;;;;10.32;92.44;102898.28;5072356;28;20059;-68
2021/11/20 03:01:02;;;;;;;20.85;12.63;;;;;;;10.35;91.98;102888.56;5072380;28;20047;-68
2021/11/20 03:03:28;;;;;;;19.17;12.00;;;;;;;10.33;91.82;102884.16;5072724;28;20044;-68
2021/11/20 03:05:57;;;;;;;21.25;12.85;;;;;;;10.33;91.14;102870.91;5072767;28;20025;-68
2021/11/20 03:08:22;;;;;;;20.50;11.93;;;;;;;10.32;90.60;102869.16;5090238;28;20046;-68
2021/11/20 03:10:48;;;;;;;18.60;11.90;;;;;;;10.35;90.16;102876.19;5074653;28;20528;-68
2021/11/20 03:13:15;;;;;;;17.83;10.98;;;;;;;10.33;90.17;102876.22;5072532;28;20036;-68
2021/11/20 03:15:40;;;;;;;16.30;10.35;;;;;;;10.36;89.46;102863.84;5072223;28;20369;-68
2021/11/20 03:18:05;;;;;;;17.35;10.43;;;;;;;10.37;89.34;102870.91;5083679;28;20032;-68
2021/11/20 03:20:32;;;;;;;16.63;10.60;;;;;;;10.36;88.92;102872.69;5073567;28;20087;-68
2021/11/20 03:23:29;;;;;;;16.98;11.13;;;;;;;10.38;88.79;102883.25;5052556;28;20021;-68
2021/11/20 03:25:55;;;;;;;17.45;10.57;;;;;;;10.36;nan;102872.69;5050515;28;20049;-69
2021/11/20 03:28:20;;;;;;;17.35;10.43;;;;;;;10.35;88.75;102867.38;5066921;28;20442;-69
2021/11/20 03:30:46;;;;;;;14.73;9.32;;;;;;;10.33;88.48;102860.31;5076141;28;20036;-68
2021/11/20 03:33:12;;;;;;;17.42;10.77;;;;;;;10.33;88.70;102865.63;5075931;28;20044;-69
2021/11/20 03:35:38;;;;;;;16.05;9.88;;;;;;;10.37;88.07;102861.22;5075804;28;20392;-69
2021/11/20 03:38:05;;;;;;;15.75;10.55;;;;;;;10.35;87.94;102865.59;5076336;28;20017;-68
2021/11/20 03:40:30;;;;;;;15.93;10.20;;;;;;;10.37;87.50;102860.31;5096311;28;20027;-68
2021/11/20 03:42:56;;;;;;;18.05;10.25;;;;;;;10.32;87.86;102853.28;5077278;28;20036;-68
2021/11/20 03:45:24;;;;;;;19.40;10.38;;;;;;;10.31;88.13;102848.84;5076200;28;20150;-69
2021/11/20 03:47:50;;;;;;;17.45;10.80;;;;;;;10.28;88.19;102845.38;5076062;28;20032;-69
2021/11/20 03:50:16;;;;;;;16.00;10.45;;;;;;;10.27;87.92;102846.28;5089335;28;20032;-69
2021/11/20 03:52:43;;;;;;;17.13;10.70;;;;;;;10.29;87.76;102849.78;5084407;28;20028;-68
2021/11/20 03:55:12;;;;;;;14.88;9.88;;;;;;;10.28;87.79;102840.97;5075690;28;20028;-68
2021/11/20 03:57:37;;;;;;;16.08;10.75;;;;;;;10.25;87.68;102840.97;5075471;28;20044;-68
2021/11/20 04:00:09;;;;;;;19.23;11.27;;;;;;;10.23;88.24;102833.94;5081489;28;20067;-69
2021/11/20 04:02:34;;;;;;;19.70;10.98;;;;;;;10.26;87.42;102840.09;5091065;28;20036;-68
2021/11/20 04:05:00;;;;;;;15.98;10.88;;;;;;;10.27;87.29;102831.25;5075511;28;20032;-68
2021/11/20 04:07:25;;;;;;;18.02;11.52;;;;;;;10.24;87.67;102838.34;5075553;28;20457;-69
2021/11/20 04:09:50;;;;;;;20.45;12.02;;;;;;;10.22;87.69;102841.03;5075227;28;20029;-68
2021/11/20 04:12:16;;;;;;;19.27;12.55;;;;;;;10.25;87.21;102845.41;5092740;28;20060;-69
2021/11/20 04:14:41;;;;;;;17.60;11.98;;;;;;;10.23;87.37;102845.44;5078483;28;20108;-68
2021/11/20 04:17:06;;;;;;;20.85;12.75;;;;;;;10.19;87.47;102842.81;5075500;28;20107;-68
2021/11/20 04:19:33;;;;;;;18.48;12.55;;;;;;;10.19;87.17;102838.41;5075383;28;20024;-69
2021/11/20 04:21:58;;;;;;;18.90;13.27;;;;;;;10.23;86.82;102836.59;5086210;28;20035;-68
2021/11/20 04:24:24;;;;;;;18.95;13.02;;;;;;;10.24;86.71;102839.22;5086445;28;20028;-68
2021/11/20 04:26:50;;;;;;;19.65;13.75;;;;;;;10.26;86.39;102833.94;5074945;28;20116;-68
2021/11/20 04:29:15;;;;;;;19.20;13.25;;;;;;;10.27;86.08;102831.25;5075098;28;20369;-68
2021/11/20 04:31:41;;;;;;;19.30;13.38;;;;;;;10.24;86.33;102827.78;5074222;28;20086;-68
2021/11/20 04:34:06;;;;;;;20.65;13.57;;;;;;;10.21;86.66;102822.53;5055777;28;20033;-68
2021/11/20 04:36:32;;;;;;;20.85;14.27;;;;;;;10.23;86.13;102816.31;5053772;28;20135;-68
2021/11/20 04:38:58;;;;;;;19.20;13.45;;;;;;;10.26;86.01;102816.25;5054630;28;20021;-68
2021/11/20 04:41:23;;;;;;;21.27;13.95;;;;;;;10.28;85.84;102813.59;5055008;28;20032;-68
2021/11/20 04:43:51;;;;;;;18.73;14.18;;;;;;;10.25;86.02;102811.00;5073064;28;20138;-68
2021/11/20 04:46:18;;;;;;;18.95;14.45;;;;;;;10.30;85.36;102823.28;5074485;28;20114;-68
2021/11/20 04:48:43;;;;;;;20.40;15.15;;;;;;;10.28;85.67;102817.13;5054560;28;20385;-69
2021/11/20 04:51:10;;;;;;;20.42;15.02;;;;;;;10.27;85.82;102823.31;5054610;28;20028;-68
2021/11/20 04:53:38;;;;;;;21.67;15.35;;;;;;;10.26;86.17;102826.00;5065327;28;20028;-68
2021/11/20 04:56:06;;;;;;;20.63;14.98;;;;;;;10.24;86.26;102825.97;5074506;28;20384;-68
2021/11/20 04:58:33;;;;;;;21.25;15.13;;;;;;;10.27;86.21;102836.56;5074429;28;20477;-68
2021/11/20 05:00:59;;;;;;;22.17;16.08;;;;;;;10.26;86.38;102832.16;5074671;28;20021;-68
2021/11/20 05:03:25;;;;;;;24.27;16.73;;;;;;;10.26;86.47;102820.69;5058770;28;20021;-68
2021/11/20 05:05:53;;;;;;;27.05;17.58;;;;;;;10.25;86.46;102818.94;5074558;28;20020;-68
2021/11/20 05:08:20;;;;;;;24.27;17.65;;;;;;;10.21;86.94;102830.47;5073514;28;20513;-68
2021/11/20 05:10:48;;;;;;;25.00;17.45;;;;;;;10.20;87.03;102821.63;5074387;28;20031;-68
2021/11/20 05:13:14;;;;;;;27.20;17.92;;;;;;;10.17;87.14;102830.47;5074207;28;20016;-67
2021/11/20 05:15:42;;;;;;;28.00;17.90;;;;;;;10.21;87.11;102822.53;5075245;28;20369;-68
2021/11/20 05:18:08;;;;;;;29.20;18.58;;;;;;;10.15;87.14;102815.50;5073769;28;20028;-67
2021/11/20 05:20:34;;;;;;;27.27;18.55;;;;;;;10.15;87.29;102808.47;5073809;28;20036;-66
2021/11/20 05:22:59;;;;;;;27.50;18.48;;;;;;;10.17;87.16;102804.00;5073663;28;20095;-68
2021/11/20 05:25:26;;;;;;;28.48;19.17;;;;;;;10.16;87.38;102802.25;5075280;28;20032;-67
2021/11/20 05:27:54;;;;;;;29.13;19.30;;;;;;;10.14;87.82;102800.50;5073488;28;20098;-67
2021/11/20 05:30:29;;;;;;;30.45;19.42;;;;;;;10.15;87.66;102800.53;5073691;28;20033;-67
2021/11/20 05:32:57;;;;;;;28.90;19.40;;;;;;;10.15;87.62;102795.22;5056652;28;20049;-68
2021/11/20 05:35:25;;;;;;;29.80;19.52;;;;;;;10.13;88.17;102793.50;5058468;28;20028;-67
2021/11/20 05:37:51;;;;;;;30.33;19.50;;;;;;;10.16;87.90;102793.44;5073804;28;20070;-68
2021/11/20 05:40:17;;;;;;;29.73;19.02;;;;;;;10.19;87.72;102790.75;5073341;28;20029;-68
2021/11/20 05:42:45;;;;;;;29.67;19.60;;;;;;;10.19;87.58;102785.44;5073774;28;20024;-68
2021/11/20 05:45:12;;;;;;;30.30;19.83;;;;;;;10.15;87.92;102775.78;5073883;28;20390;-68
2021/11/20 05:47:38;;;;;;;34.50;20.05;;;;;;;10.12;87.96;102773.19;5074440;28;20028;-67
2021/11/20 05:50:06;;;;;;;28.77;18.60;;;;;;;10.15;87.64;102775.78;5070792;28;20115;-68
2021/11/20 05:52:31;;;;;;;28.85;19.65;;;;;;;10.13;87.77;102778.47;5073525;28;20032;-68
2021/11/20 05:54:57;;;;;;;28.83;19.38;;;;;;;10.11;87.90;102767.00;5073339;28;20024;-68
2021/11/20 05:57:23;;;;;;;29.83;18.92;;;;;;;10.08;87.71;102775.00;5074806;28;20048;-67
2021/11/20 05:59:48;;;;;;;27.95;19.30;;;;;;;10.10;87.69;102764.38;5073062;28;20059;-67
2021/11/20 06:02:15;;;;;;;28.95;19.55;;;;;;;10.08;87.72;102760.91;5073232;28;20483;-68
2021/11/20 06:04:40;;;;;;;25.55;18.75;;;;;;;10.07;87.54;102760.00;5073343;28;20028;-68
2021/11/20 06:07:06;;;;;;;27.27;19.23;;;;;;;10.09;87.03;102754.69;5074154;28;20044;-68
2021/11/20 06:09:31;;;;;;;26.88;18.88;;;;;;;10.07;86.94;102752.06;5063957;28;20086;-67
2021/11/20 06:11:57;;;;;;;27.98;19.75;;;;;;;10.12;86.83;102754.66;5067605;28;20069;-67
2021/11/20 06:14:22;;;;;;;26.52;19.85;;;;;;;10.10;86.86;102751.16;5073171;28;20032;-68
2021/11/20 06:16:48;;;;;;;25.27;18.60;;;;;;;10.12;86.76;102744.06;5072984;28;20166;-67
2021/11/20 06:19:13;;;;;;;26.92;19.00;;;;;;;10.10;86.76;102737.91;5074222;28;20764;-68
2021/11/20 06:21:40;;;;;;;25.58;19.15;;;;;;;10.08;86.79;102743.22;5055330;28;20422;-68
2021/11/20 06:24:06;;;;;;;25.33;19.45;;;;;;;10.08;86.41;102735.28;5061415;28;20029;-68
2021/11/20 06:26:33;;;;;;;24.30;19.10;;;;;;;10.07;86.40;102736.19;5052474;28;20021;-68
2021/11/20 06:28:58;;;;;;;24.23;18.75;;;;;;;10.07;86.52;102736.19;5061271;28;20035;-68
2021/11/20 06:31:24;;;;;;;25.70;18.50;;;;;;;10.06;86.42;102726.47;5072967;28;20029;-68
2021/11/20 06:33:50;;;;;;;24.85;17.77;;;;;;;10.09;86.50;102742.34;5063933;28;20064;-68
2021/11/20 06:36:15;;;;;;;25.02;17.90;;;;;;;10.07;86.66;102741.47;5073541;28;20419;-67
2021/11/20 06:38:41;;;;;;;24.70;18.33;;;;;;;10.08;86.51;102743.22;5072693;28;20031;-67
2021/11/20 06:41:09;;;;;;;23.65;17.83;;;;;;;10.10;86.16;102733.50;5072597;28;20024;-68
2021/11/20 06:43:35;;;;;;;23.80;17.67;;;;;;;10.08;86.59;102735.28;5072338;28;20039;-67
2021/11/20 06:46:03;;;;;;;23.80;17.67;;;;;;;10.06;86.80;102738.84;5072622;28;20119;-68
2021/11/20 06:48:29;;;;;;;28.05;18.30;;;;;;;10.09;86.40;102738.81;5072883;28;20024;-67
2021/11/20 06:50:54;;;;;;;24.30;16.92;;;;;;;10.10;86.57;102736.16;5072951;28;20422;-68
2021/11/20 06:53:21;;;;;;;27.27;17.70;;;;;;;10.09;86.29;102738.81;5073461;28;20468;-67
2021/11/20 06:55:48;;;;;;;24.02;17.15;;;;;;;10.08;86.49;102739.72;5082022;28;20462;-68
2021/11/20 07:00:51;;;;;;;27.33;18.27;;;;;;;10.08;86.54;102739.72;5070065;28;20411;-68
2021/11/20 07:03:32;;;;;;;27.67;18.25;;;;;;;10.07;86.96;102738.81;5072386;28;20036;-68
2021/11/20 07:06:06;;;;;;;27.23;18.02;;;;;;;10.07;86.87;102735.31;5072134;28;20020;-68
2021/11/20 07:08:31;;;;;;;27.00;17.58;;;;;;;10.03;87.30;102730.97;5072250;28;20029;-67
2021/11/20 07:10:59;;;;;;;26.75;17.65;;;;;;;10.02;87.40;102729.19;5072205;28;20374;-69
2021/11/20 07:13:24;;;;;;;27.35;18.10;;;;;;;10.03;87.56;102730.97;5069726;28;20040;-68
2021/11/20 07:15:51;;;;;;;29.02;18.45;;;;;;;10.03;87.50;102731.81;5067880;28;20025;-66
2021/11/20 07:18:18;;;;;;;29.95;18.52;;;;;;;10.07;87.29;102727.38;5059165;28;20116;-67
2021/11/20 07:20:44;;;;;;;27.52;17.98;;;;;;;10.08;87.55;102731.78;5069496;28;20024;-67
2021/11/20 07:23:10;;;;;;;29.23;17.88;;;;;;;10.06;87.30;102725.63;5072297;28;20031;-67
2021/11/20 07:25:37;;;;;;;32.42;18.67;;;;;;;10.07;87.24;102722.94;5068729;28;20503;-67
2021/11/20 07:28:02;;;;;;;30.23;17.42;;;;;;;10.08;87.22;102719.41;5057641;28;20488;-66
2021/11/20 07:30:31;;;;;;;28.10;17.60;;;;;;;10.10;87.40;102719.38;5052176;28;20025;-66
2021/11/20 07:32:57;;;;;;;28.83;18.23;;;;;;;10.07;87.89;102722.09;5062596;28;20048;-67
2021/11/20 07:35:33;;;;;;;29.33;17.83;;;;;;;10.05;87.73;102713.28;5072286;28;20447;-66
2021/11/20 07:37:59;;;;;;;30.10;18.63;;;;;;;10.04;87.42;102715.06;5071635;28;20028;-68
2021/11/20 07:40:27;;;;;;;27.45;18.25;;;;;;;10.08;87.42;102700.88;5051901;28;20075;-73
2021/11/20 07:42:53;;;;;;;29.10;17.70;;;;;;;10.11;87.36;102702.59;5051912;28;20021;-68
2021/11/20 07:45:19;;;;;;;30.38;18.90;;;;;;;10.16;87.37;102700.78;5059656;28;20076;-72
2021/11/20 07:47:44;;;;;;;27.60;18.20;;;;;;;10.16;87.15;102706.06;5063090;28;20070;-69
2021/11/20 07:50:10;;;;;;;29.70;18.30;;;;;;;10.16;87.06;102706.06;5066389;28;20017;-68
2021/11/20 07:52:35;;;;;;;29.25;19.17;;;;;;;10.16;87.51;102708.72;5057925;28;20024;-68
2021/11/20 07:55:01;;;;;;;31.00;19.15;;;;;;;10.18;87.23;102714.88;5071764;28;20020;-66
2021/11/20 07:57:27;;;;;;;30.65;19.35;;;;;;;10.16;87.32;102704.28;5069053;28;20040;-65
2021/11/20 07:59:52;;;;;;;31.77;20.52;;;;;;;10.15;87.25;102705.22;5073016;28;20436;-67
2021/11/20 08:02:17;;;;;;;30.60;19.42;;;;;;;10.20;86.97;102709.56;5071869;28;20357;-67
2021/11/20 08:04:43;;;;;;;33.70;21.20;;;;;;;10.20;87.50;102699.84;5071681;28;20117;-66
2021/11/20 08:07:09;;;;;;;31.70;20.23;;;;;;;10.22;87.24;102702.44;5066028;28;20032;-67
2021/11/20 08:09:35;;;;;;;33.47;20.15;;;;;;;10.24;87.32;102703.31;5064370;28;20044;-67
2021/11/20 08:12:02;;;;;;;32.25;19.58;;;;;;;10.30;87.19;102692.66;5068196;28;20457;-66
2021/11/20 08:14:28;;;;;;;31.25;19.90;;;;;;;10.33;87.14;102682.00;5075452;28;20060;-67
2021/11/20 08:16:54;;;;;;;33.28;20.55;;;;;;;10.30;87.06;102679.41;5076009;28;20051;-66
2021/11/20 08:19:20;;;;;;;31.83;21.10;;;;;;;10.33;87.29;102674.06;5075157;28;20472;-68
2021/11/20 08:21:45;;;;;;;33.65;21.30;;;;;;;10.36;87.27;102678.47;5075455;28;20023;-67
2021/11/20 08:24:11;;;;;;;36.58;22.38;;;;;;;10.38;87.30;102676.69;5075019;28;20500;-67
2021/11/20 08:26:38;;;;;;;35.40;21.27;;;;;;;10.36;87.25;102668.78;5075529;28;20082;-67
2021/11/20 08:29:10;;;;;;;34.28;22.20;;;;;;;10.42;87.05;102662.50;5076039;28;20021;-67
2021/11/20 08:31:38;;;;;;;34.20;20.80;;;;;;;10.44;87.53;102666.00;5074077;28;20068;-67
2021/11/20 08:34:04;;;;;;;38.13;22.17;;;;;;;10.42;87.92;102667.78;5075419;28;20056;-67
2021/11/20 08:36:30;;;;;;;34.50;21.58;;;;;;;10.44;87.51;102658.06;5075146;28;20029;-67
2021/11/20 08:38:55;;;;;;;38.72;22.20;;;;;;;10.48;87.48;102663.28;5082360;28;20081;-66
2021/11/20 08:41:20;;;;;;;35.45;21.40;;;;;;;10.53;87.50;102657.06;5078449;28;20086;-67
2021/11/20 08:43:46;;;;;;;35.70;20.85;;;;;;;10.57;87.61;102658.75;5068179;28;20024;-66
2021/11/20 08:46:11;;;;;;;38.00;21.80;;;;;;;10.56;87.29;102644.63;5074908;28;20037;-66
2021/11/20 08:48:38;;;;;;;36.55;21.33;;;;;;;10.56;87.74;102649.94;5075727;28;20030;-66
2021/11/20 08:51:12;;;;;;;40.47;22.17;;;;;;;10.60;87.37;102641.03;5074968;28;20021;-66
2021/11/20 08:53:38;;;;;;;39.50;21.30;;;;;;;10.58;87.60;102647.25;5074319;28;20032;-67
2021/11/20 08:56:04;;;;;;;33.75;19.52;;;;;;;10.58;87.66;102653.41;5074761;28;20036;-68
2021/11/20 08:58:35;;;;;;;44.28;22.60;;;;;;;10.56;87.94;102646.38;5074036;28;20036;-67
2021/11/20 09:01:04;;;;;;;34.03;19.85;;;;;;;10.57;87.83;102649.00;5075369;28;20472;-68
2021/11/20 09:03:56;;;;;;;35.80;21.42;;;;;;;10.59;88.09;102643.72;5074928;28;20033;-67
2021/11/20 09:06:30;;;;;;;36.35;20.30;;;;;;;10.62;88.06;102643.66;4973656;28;20050;-67
2021/11/20 09:09:03;;;;;;;36.83;20.67;;;;;;;10.67;87.71;102643.59;4973455;28;20035;-66
2021/11/20 09:11:33;;;;;;;36.42;20.02;;;;;;;10.64;87.75;102641.88;4976315;28;20069;-66
2021/11/20 09:14:22;;;;;;;35.97;20.60;;;;;;;10.63;88.07;102640.97;4982469;28;20034;-67
2021/11/20 09:16:47;;;;;;;39.75;21.40;;;;;;;10.64;88.03;102624.19;4972935;28;20035;-66
2021/11/20 09:19:13;;;;;;;35.17;19.67;;;;;;;10.69;87.97;102631.16;4973571;28;20042;-68
2021/11/20 09:21:40;;;;;;;34.78;19.75;;;;;;;10.64;87.82;102621.53;4982152;28;20027;-66
2021/11/20 09:24:08;;;;;;;34.80;21.13;;;;;;;10.64;87.90;102620.66;4992034;28;20046;-67
2021/11/20 09:26:35;;;;;;;34.47;20.05;;;;;;;10.63;88.37;102621.56;4992256;28;20128;-65
2021/11/20 09:29:02;;;;;;;36.70;19.95;;;;;;;10.63;88.29;102618.91;4992596;28;20070;-68
2021/11/20 09:31:30;;;;;;;35.28;19.67;;;;;;;10.65;88.09;102618.00;4976075;28;20121;-66
2021/11/20 09:33:56;;;;;;;36.72;20.05;;;;;;;10.65;88.28;102615.34;4991072;28;20049;-66
2021/11/20 09:36:23;;;;;;;36.17;19.85;;;;;;;10.67;87.90;102623.25;4985275;28;20034;-67
2021/11/20 09:38:50;;;;;;;37.30;19.98;;;;;;;10.71;88.09;102627.59;4972809;28;20479;-67
2021/11/20 09:41:20;;;;;;;35.38;19.48;;;;;;;10.71;88.16;102624.94;4972421;28;20122;-67
2021/11/20 09:43:50;;;;;;;66.50;24.90;;;;;;;10.74;88.15;102626.66;5030036;28;20044;-67
2021/11/20 09:46:25;;;;;;;36.20;19.45;;;;;;;10.71;87.96;102630.25;5072360;28;20107;-67
2021/11/20 09:48:55;;;;;;;33.90;18.88;;;;;;;10.64;88.21;102612.72;5057192;28;20488;-68
2021/11/20 09:51:25;;;;;;;34.33;18.58;;;;;;;10.69;88.23;102615.28;5068469;28;20050;-68
2021/11/20 09:53:52;;;;;;;31.75;18.52;;;;;;;10.71;88.16;102619.66;5076748;28;20110;-68
2021/11/20 09:56:23;;;;;;;34.03;19.73;;;;;;;10.69;88.27;102613.53;5062044;28;20142;-68
2021/11/20 09:59:01;;;;;;;34.22;20.27;;;;;;;10.72;88.30;102609.94;5072991;28;20025;-68
2021/11/20 10:01:46;;;;;;;37.13;20.38;;;;;;;10.73;88.06;102619.59;5072963;28;20070;-67
2021/11/20 10:04:19;;;;;;;39.75;22.20;;;;;;;10.75;88.14;102609.88;5076840;28;20134;-68
2021/11/20 10:06:48;;;;;;;25.40;17.23;;;;;;;10.71;88.07;102605.53;5071683;28;20023;-68
2021/11/20 10:09:21;;;;;;;29.13;18.10;;;;;;;10.70;88.17;102602.00;5056417;28;20437;-67
2021/11/20 10:11:57;;;;;;;28.45;18.33;;;;;;;10.72;88.25;102605.50;5072341;28;20473;-66
2021/11/20 10:15:16;;;;;;;28.85;17.38;;;;;;;10.76;88.22;102593.06;5077149;28;20162;-68
2021/11/20 10:17:50;;;;;;;33.72;19.33;;;;;;;10.79;88.04;102593.00;4971887;28;20100;-68
2021/11/20 10:20:51;;;;;;;30.60;19.75;;;;;;;10.80;88.24;102597.41;4965698;28;20035;-68
2021/11/20 10:23:27;;;;;;;30.98;19.30;;;;;;;10.80;88.37;102581.53;4861118;29;20139;-69
2021/11/20 10:26:05;;;;;;;30.10;19.58;;;;;;;10.82;88.24;102588.53;4864665;29;20537;-68
2021/11/20 10:28:59;;;;;;;33.13;20.02;;;;;;;10.81;88.51;102584.13;4871084;29;20057;-68
2021/11/20 10:31:33;;;;;;;33.28;19.85;;;;;;;10.80;88.95;102595.63;4864568;29;20053;-66
2021/11/20 10:34:28;;;;;;;32.40;19.42;;;;;;;10.79;88.84;102588.59;4861893;29;20060;-67
2021/11/20 10:36:58;;;;;;;34.00;20.08;;;;;;;10.79;88.99;102593.91;4857868;29;20049;-67
2021/11/20 10:39:40;;;;;;;33.58;19.80;;;;;;;10.87;88.90;102587.56;4859827;29;20045;-68
2021/11/20 10:42:31;;;;;;;34.28;20.77;;;;;;;10.85;88.99;102587.59;4867430;29;20056;-68
2021/11/20 10:45:30;;;;;;;33.95;19.85;;;;;;;10.86;88.98;102585.81;4858913;29;20224;-69
2021/11/20 10:48:08;;;;;;;33.92;19.17;;;;;;;10.88;89.04;102582.28;4872503;29;20391;-67
2021/11/20 10:50:41;;;;;;;32.35;19.85;;;;;;;10.86;89.34;102575.22;4890485;28;20042;-68
2021/11/20 10:53:34;;;;;;;36.78;21.00;;;;;;;10.80;89.78;102585.03;4952869;28;20043;-71
2021/11/20 10:56:21;;;;;;;32.50;19.42;;;;;;;10.80;89.69;102568.28;4956082;28;20530;-69
2021/11/20 10:59:17;;;;;;;35.85;19.88;;;;;;;10.81;89.41;102557.63;5009281;28;20063;-70
2021/11/20 11:01:42;;;;;;;34.33;19.73;;;;;;;10.80;89.74;102560.31;4997701;28;20049;-69
2021/11/20 11:04:41;;;;;;;31.02;19.33;;;;;;;10.79;89.73;102554.16;5010000;28;20589;-68
2021/11/20 11:07:25;;;;;;;32.08;18.95;;;;;;;10.75;89.97;102538.31;5001658;28;20180;-68
2021/11/20 11:10:01;;;;;;;33.72;18.67;;;;;;;10.77;90.26;102541.84;5009636;28;20049;-70
2021/11/20 11:12:31;;;;;;;33.65;19.15;;;;;;;10.77;89.93;102531.25;4997737;28;20042;-68
2021/11/20 11:15:15;;;;;;;34.60;18.95;;;;;;;10.76;90.05;102538.28;5009705;28;20030;-67
2021/11/20 11:18:02;;;;;;;35.38;19.98;;;;;;;10.75;90.13;102531.25;4997513;28;20096;-70
2021/11/20 11:20:39;;;;;;;38.30;19.73;;;;;;;10.77;90.34;102521.50;4989880;28;20042;-69
2021/11/20 11:23:13;;;;;;;35.70;18.98;;;;;;;10.80;90.29;102526.72;4989706;28;20034;-69